Time;durP1;ratioP1;P1;durP2;ratioP2;P2;SDS_P1;SDS_P2;PMS_P1;PMS_P2;Temp;Humidity;BMP_temperature;BMP_pressure;BME280_temperature;BME280_humidity;BME280_pressure;Samples;Min_cycle;Max_cycle;Signal;HPM_P1;HPM_P2
2021/10/06 00:02:06;;;;;;;0.30;0.30;;;;;;;9.74;100.00;100157.06;5030890;28;20041;-82
2021/10/06 00:04:34;;;;;;;0.20;0.20;;;;;;;9.66;100.00;100138.69;5025313;28;20049;-82
2021/10/06 00:07:07;;;;;;;0.30;0.30;;;;;;;9.74;100.00;100146.19;5007760;28;20050;-84
2021/10/06 00:09:42;;;;;;;0.20;0.20;;;;;;;9.79;100.00;100159.75;5027343;28;20056;-83
2021/10/06 00:12:12;;;;;;;0.30;0.30;;;;;;;9.77;100.00;100156.50;5031105;28;20048;-82
2021/10/06 00:14:45;;;;;;;0.30;0.30;;;;;;;9.80;100.00;100166.78;5014239;28;20052;-81
2021/10/06 00:17:20;;;;;;;0.25;0.25;;;;;;;9.82;100.00;100161.88;5014644;28;20052;-81
2021/10/06 00:19:53;;;;;;;0.30;0.30;;;;;;;9.81;100.00;100171.13;5014099;28;20045;-82
2021/10/06 00:22:26;;;;;;;0.20;0.20;;;;;;;9.85;100.00;100155.88;5012806;28;21366;-83
2021/10/06 00:24:59;;;;;;;0.20;0.20;;;;;;;9.87;100.00;100169.16;5014179;28;20042;-82
2021/10/06 00:27:34;;;;;;;0.30;0.30;;;;;;;9.89;100.00;100164.25;5012384;28;20056;-82
2021/10/06 00:30:08;;;;;;;0.17;0.17;;;;;;;9.86;100.00;100162.94;5014415;28;20459;-82
2021/10/06 00:32:42;;;;;;;0.20;0.20;;;;;;;9.94;100.00;100171.53;5014334;28;20516;-82
2021/10/06 00:35:16;;;;;;;0.20;0.20;;;;;;;9.84;100.00;100164.31;5009874;28;20057;-82
2021/10/06 00:37:49;;;;;;;0.17;0.17;;;;;;;9.96;100.00;100172.09;5013800;28;20075;-82
2021/10/06 00:40:17;;;;;;;0.20;0.20;;;;;;;9.94;100.00;100171.53;5013000;28;20054;-82
2021/10/06 00:42:54;;;;;;;0.20;0.20;;;;;;;9.96;100.00;100172.88;5014214;28;20060;-82
2021/10/06 00:45:27;;;;;;;0.17;0.17;;;;;;;10.06;100.00;100185.56;5032719;28;20053;-82
2021/10/06 00:48:27;;;;;;;0.20;0.20;;;;;;;10.00;100.00;100192.16;5012606;28;20049;-83
2021/10/06 00:50:55;;;;;;;0.20;0.20;;;;;;;10.02;100.00;100189.94;5011297;28;20141;-82
2021/10/06 00:53:27;;;;;;;0.20;0.20;;;;;;;10.04;100.00;100195.91;5030190;28;20053;-82
2021/10/06 00:56:15;;;;;;;0.30;0.20;;;;;;;10.06;100.00;100191.00;5032441;28;20052;-81
2021/10/06 00:58:45;;;;;;;0.20;0.20;;;;;;;10.06;100.00;100192.91;5013262;28;20053;-82
2021/10/06 01:02:05;;;;;;;0.20;0.20;;;;;;;10.13;100.00;100196.88;5013625;28;20050;-82
2021/10/06 01:04:38;;;;;;;0.20;0.20;;;;;;;10.13;100.00;100198.81;5032446;28;20041;-82
2021/10/06 01:07:11;;;;;;;0.17;0.17;;;;;;;10.14;100.00;100203.16;5013393;28;20068;-82
2021/10/06 01:09:43;;;;;;;0.20;0.20;;;;;;;10.13;100.00;100199.59;5014318;28;20065;-82
2021/10/06 01:12:11;;;;;;;0.20;0.20;;;;;;;10.16;100.00;100209.09;5030086;28;20045;-82
2021/10/06 01:14:47;;;;;;;0.22;0.22;;;;;;;10.17;100.00;100213.44;5031678;28;20500;-82
2021/10/06 01:17:20;;;;;;;0.20;0.20;;;;;;;10.15;100.00;100218.34;5029994;28;20048;-82
2021/10/06 01:19:48;;;;;;;0.20;0.20;;;;;;;10.18;100.00;100226.75;5030330;28;20056;-81
2021/10/06 01:22:25;;;;;;;0.20;0.20;;;;;;;10.15;100.00;100215.63;5013310;28;20076;-82
2021/10/06 01:24:53;;;;;;;0.30;0.30;;;;;;;10.22;100.00;100227.00;5026353;28;20409;-83
2021/10/06 01:27:21;;;;;;;0.20;0.20;;;;;;;10.21;100.00;100228.09;5012929;28;20421;-82
2021/10/06 01:29:50;;;;;;;0.20;0.20;;;;;;;10.25;100.00;100231.84;5014328;28;20053;-81
2021/10/06 01:32:23;;;;;;;0.20;0.20;;;;;;;10.28;100.00;100219.59;5013573;28;20117;-81
2021/10/06 01:34:58;;;;;;;0.20;0.20;;;;;;;10.27;100.00;100231.56;5034396;28;20045;-82
2021/10/06 01:37:28;;;;;;;0.20;0.20;;;;;;;10.26;100.00;100235.38;5016364;28;20048;-82
2021/10/06 01:40:02;;;;;;;0.20;0.20;;;;;;;10.25;100.00;100236.47;5016163;28;20049;-81
2021/10/06 01:42:35;;;;;;;0.20;0.20;;;;;;;10.25;100.00;100233.75;5017240;28;20054;-82
2021/10/06 01:45:16;;;;;;;0.30;0.30;;;;;;;10.19;100.00;100213.94;5016139;28;20076;-82
2021/10/06 01:47:45;;;;;;;0.20;0.20;;;;;;;10.20;100.00;100231.91;5016450;28;20064;-81
2021/10/06 01:50:19;;;;;;;0.20;0.20;;;;;;;10.30;100.00;100233.69;5016140;28;20053;-81
2021/10/06 01:52:55;;;;;;;0.20;0.20;;;;;;;10.25;100.00;100240.00;5012702;28;20072;-82
2021/10/06 01:55:28;;;;;;;0.15;0.15;;;;;;;10.28;100.00;100249.50;5016758;28;20049;-82
2021/10/06 01:58:01;;;;;;;0.28;0.28;;;;;;;10.29;100.00;100259.25;5016552;28;20061;-82
2021/10/06 02:00:34;;;;;;;0.20;0.20;;;;;;;10.24;100.00;100262.84;5012542;28;20416;-81
2021/10/06 02:03:07;;;;;;;0.20;0.20;;;;;;;10.19;100.00;100244.69;5034615;28;20045;-82
2021/10/06 02:05:41;;;;;;;0.20;0.20;;;;;;;10.23;100.00;100255.00;5016972;28;20049;-82
2021/10/06 02:08:17;;;;;;;0.20;0.20;;;;;;;10.18;100.00;100264.81;5032764;28;20065;-83
2021/10/06 02:10:50;;;;;;;0.20;0.20;;;;;;;10.18;100.00;100256.66;5025305;28;20049;-83
2021/10/06 02:13:18;;;;;;;0.35;0.30;;;;;;;10.16;100.00;100264.31;5034715;28;20038;-81
2021/10/06 02:15:47;;;;;;;0.20;0.20;;;;;;;10.19;100.00;100281.94;5016809;28;20505;-82
2021/10/06 02:18:20;;;;;;;0.30;0.30;;;;;;;10.14;100.00;100269.22;5017161;28;20058;-81
2021/10/06 02:20:53;;;;;;;0.20;0.20;;;;;;;10.15;100.00;100278.16;5016786;28;20068;-82
2021/10/06 02:23:27;;;;;;;0.30;0.30;;;;;;;10.13;100.00;100264.88;5034310;28;20508;-82
2021/10/06 02:25:56;;;;;;;0.20;0.20;;;;;;;10.13;100.00;100273.03;5016499;28;20045;-82
2021/10/06 02:28:24;;;;;;;0.20;0.20;;;;;;;10.12;100.00;100265.16;5016954;28;20323;-82
2021/10/06 02:31:06;;;;;;;0.20;0.20;;;;;;;10.16;100.00;100285.22;5016294;28;20045;-81
2021/10/06 02:33:39;;;;;;;0.20;0.20;;;;;;;10.15;100.00;100286.31;5015916;28;20485;-83
2021/10/06 02:36:12;;;;;;;0.20;0.20;;;;;;;10.08;100.00;100285.84;5016157;28;20060;-81
2021/10/06 02:38:47;;;;;;;0.20;0.20;;;;;;;10.06;100.00;100288.88;5011500;28;20046;-82
2021/10/06 02:41:20;;;;;;;0.20;0.20;;;;;;;9.97;100.00;100287.84;5015682;28;20061;-83
2021/10/06 02:43:53;;;;;;;0.20;0.20;;;;;;;9.94;100.00;100289.22;5006659;28;20053;-83
2021/10/06 02:46:27;;;;;;;0.20;0.20;;;;;;;9.91;100.00;100297.97;5013167;28;20053;-83
2021/10/06 02:49:00;;;;;;;0.20;0.20;;;;;;;9.86;100.00;100296.09;5034370;28;20481;-83
2021/10/06 02:51:29;;;;;;;0.30;0.30;;;;;;;9.85;100.00;100301.81;5015196;28;20057;-83
2021/10/06 02:54:04;;;;;;;0.20;0.20;;;;;;;9.83;100.00;100304.00;5033794;28;20528;-82
2021/10/06 02:56:37;;;;;;;0.20;0.20;;;;;;;9.76;100.00;100306.25;5032985;28;20064;-82
2021/10/06 02:59:10;;;;;;;0.17;0.17;;;;;;;9.71;100.00;100315.25;5026564;28;20048;-82
2021/10/06 03:01:39;;;;;;;0.20;0.20;;;;;;;9.55;100.00;100284.66;5016141;28;20564;-81
2021/10/06 03:04:12;;;;;;;0.20;0.20;;;;;;;9.57;100.00;100300.66;5031920;28;20065;-82
2021/10/06 03:06:45;;;;;;;0.30;0.30;;;;;;;9.64;100.00;100321.00;5012101;28;20053;-84
2021/10/06 03:09:15;;;;;;;0.20;0.20;;;;;;;9.61;100.00;100318.84;5015135;28;20079;-84
2021/10/06 03:12:19;;;;;;;0.35;0.30;;;;;;;9.67;100.00;100325.06;5015496;28;20045;-82
2021/10/06 03:14:52;;;;;;;0.25;0.25;;;;;;;9.67;100.00;100328.56;5005913;28;20128;-82
2021/10/06 03:17:25;;;;;;;0.20;0.20;;;;;;;9.69;100.00;100323.69;5015484;28;20049;-82
2021/10/06 03:19:58;;;;;;;0.20;0.20;;;;;;;9.74;100.00;100339.13;5032966;28;20042;-82
2021/10/06 03:22:36;;;;;;;0.30;0.30;;;;;;;9.78;100.00;100336.69;5014883;28;20041;-82
2021/10/06 03:25:10;;;;;;;0.20;0.20;;;;;;;9.78;100.00;100339.38;4996303;28;20054;-82
2021/10/06 03:27:43;;;;;;;0.20;0.20;;;;;;;9.76;100.00;100345.09;4995990;28;20052;-82
2021/10/06 03:30:17;;;;;;;0.25;0.25;;;;;;;9.84;100.00;100346.41;4995806;28;20058;-82
2021/10/06 03:32:50;;;;;;;0.20;0.20;;;;;;;9.80;100.00;100357.00;5001388;28;20057;-84
2021/10/06 03:35:23;;;;;;;0.30;0.30;;;;;;;9.81;100.00;100355.94;5015186;28;20552;-82
2021/10/06 03:37:56;;;;;;;0.20;0.20;;;;;;;9.82;100.00;100359.47;5031609;28;20045;-83
2021/10/06 03:40:31;;;;;;;0.20;0.20;;;;;;;9.85;100.00;100361.63;5033284;28;20045;-83
2021/10/06 03:43:04;;;;;;;0.30;0.30;;;;;;;9.84;100.00;100360.00;5015133;28;20516;-82
2021/10/06 03:45:32;;;;;;;0.20;0.20;;;;;;;9.87;100.00;100370.28;5015475;28;20056;-82
2021/10/06 03:48:06;;;;;;;0.20;0.20;;;;;;;9.84;100.00;100362.72;5033451;28;20397;-83
2021/10/06 03:50:35;;;;;;;0.20;0.20;;;;;;;9.84;100.00;100360.00;5032604;28;20405;-84
2021/10/06 03:53:08;;;;;;;0.22;0.22;;;;;;;9.84;100.00;100363.50;5014028;28;20057;-84
2021/10/06 03:55:43;;;;;;;0.20;0.20;;;;;;;9.83;100.00;100378.22;5014737;28;20052;-83
2021/10/06 03:58:17;;;;;;;0.20;0.20;;;;;;;9.79;100.00;100379.03;5033020;28;20536;-83
2021/10/06 04:00:46;;;;;;;0.20;0.20;;;;;;;9.75;100.00;100376.09;5014574;28;20406;-83
2021/10/06 04:03:15;;;;;;;0.20;0.20;;;;;;;9.69;100.00;100391.63;5032908;28;20049;-82
2021/10/06 04:05:48;;;;;;;0.20;0.20;;;;;;;9.68;100.00;100395.41;5029869;28;20060;-82
2021/10/06 04:08:21;;;;;;;0.20;0.20;;;;;;;9.69;100.00;100396.22;5032575;28;20038;-83
2021/10/06 04:10:51;;;;;;;0.20;0.20;;;;;;;9.59;100.00;100393.56;5032702;28;20053;-83
2021/10/06 04:13:24;;;;;;;0.28;0.20;;;;;;;9.57;100.00;100396.56;5014778;28;20064;-83
2021/10/06 04:15:52;;;;;;;0.25;0.20;;;;;;;9.57;100.00;100399.28;5014696;28;20072;-82
2021/10/06 04:18:25;;;;;;;0.30;0.20;;;;;;;9.52;100.00;100394.69;5014596;28;20046;-82
2021/10/06 04:20:58;;;;;;;0.28;0.28;;;;;;;9.48;100.00;100412.63;5015424;28;20068;-83
2021/10/06 04:23:31;;;;;;;0.15;0.15;;;;;;;9.46;100.00;100416.72;5032527;28;20104;-82
2021/10/06 04:26:05;;;;;;;0.30;0.30;;;;;;;9.42;100.00;100411.03;5031521;28;20061;-83
2021/10/06 04:28:39;;;;;;;0.22;0.22;;;;;;;9.38;100.00;100392.84;5014182;28;20053;-82
2021/10/06 04:31:12;;;;;;;0.20;0.20;;;;;;;9.56;100.00;100413.97;5030845;28;20056;-83
2021/10/06 04:33:45;;;;;;;0.20;0.20;;;;;;;9.48;100.00;100419.97;5030735;28;20053;-83
2021/10/06 04:36:18;;;;;;;0.30;0.30;;;;;;;9.39;100.00;100408.88;5030720;28;20049;-81
2021/10/06 04:38:51;;;;;;;0.20;0.20;;;;;;;9.37;100.00;100419.19;5012756;28;20485;-82
2021/10/06 04:41:26;;;;;;;0.20;0.20;;;;;;;9.30;100.00;100426.84;5010888;28;20053;-82
2021/10/06 04:44:01;;;;;;;0.38;0.20;;;;;;;9.29;100.00;100434.16;5031107;28;20046;-82
2021/10/06 04:46:34;;;;;;;0.20;0.20;;;;;;;9.21;100.00;100433.94;5031338;28;20057;-83
2021/10/06 04:49:07;;;;;;;0.20;0.20;;;;;;;9.19;100.00;100429.56;5031357;28;20053;-83
2021/10/06 04:51:41;;;;;;;0.20;0.20;;;;;;;9.19;100.00;100439.63;5031361;28;20401;-83
2021/10/06 04:54:14;;;;;;;0.20;0.20;;;;;;;9.12;100.00;100447.25;5028641;28;20053;-83
2021/10/06 04:56:48;;;;;;;0.20;0.20;;;;;;;9.09;100.00;100443.19;5031279;28;20049;-83
2021/10/06 04:59:21;;;;;;;0.30;0.30;;;;;;;9.00;100.00;100445.66;5030144;28;20048;-83
2021/10/06 05:01:55;;;;;;;0.20;0.20;;;;;;;8.94;100.00;100444.03;5030457;28;20057;-82
2021/10/06 05:04:28;;;;;;;0.20;0.20;;;;;;;8.98;100.00;100455.97;5030986;28;20056;-82
2021/10/06 05:07:02;;;;;;;0.20;0.20;;;;;;;8.89;100.00;100459.53;5030552;28;20049;-82
2021/10/06 05:10:01;;;;;;;0.20;0.20;;;;;;;8.90;100.00;100453.00;5016305;28;20049;-82
2021/10/06 05:12:36;;;;;;;0.13;0.13;;;;;;;8.93;100.00;100457.88;5011647;28;20058;-83
2021/10/06 05:15:09;;;;;;;0.20;0.20;;;;;;;8.85;100.00;100470.09;5012964;28;20520;-83
2021/10/06 05:17:38;;;;;;;0.20;0.20;;;;;;;8.87;100.00;100478.00;5033971;28;20049;-83
2021/10/06 05:20:11;;;;;;;0.20;0.20;;;;;;;8.74;100.00;100473.91;5035856;28;20053;-82
2021/10/06 05:22:45;;;;;;;0.45;0.25;;;;;;;8.72;100.00;100482.31;5017545;28;20061;-83
2021/10/06 05:25:21;;;;;;;0.20;0.20;;;;;;;8.72;100.00;100478.81;5035547;28;20054;-84
2021/10/06 05:27:56;;;;;;;0.20;0.20;;;;;;;8.71;100.00;100488.84;5034678;28;20041;-82
2021/10/06 05:30:29;;;;;;;0.20;0.20;;;;;;;8.71;100.00;100501.59;5034385;28;20535;-82
2021/10/06 05:33:03;;;;;;;0.10;0.10;;;;;;;8.72;100.00;100498.59;5033493;28;20068;-83
2021/10/06 05:35:36;;;;;;;0.20;0.20;;;;;;;8.68;100.00;100498.31;5034866;28;20037;-82
2021/10/06 05:38:04;;;;;;;0.20;0.20;;;;;;;8.50;100.00;100469.84;5017586;28;20081;-83
2021/10/06 05:40:37;;;;;;;0.40;0.30;;;;;;;8.65;100.00;100493.44;5017229;28;20052;-82
2021/10/06 05:43:12;;;;;;;0.13;0.13;;;;;;;8.65;100.00;100498.88;5017962;28;20056;-82
2021/10/06 05:45:46;;;;;;;0.20;0.20;;;;;;;8.64;100.00;100499.94;5034997;28;20468;-83
2021/10/06 05:48:16;;;;;;;0.20;0.20;;;;;;;8.62;100.00;100502.13;5016991;28;20444;-82
2021/10/06 05:50:49;;;;;;;0.13;0.13;;;;;;;8.60;100.00;100515.13;5034286;28;20056;-82
2021/10/06 05:53:22;;;;;;;0.20;0.20;;;;;;;8.43;100.00;100490.97;5033206;28;20058;-81
2021/10/06 05:55:50;;;;;;;0.20;0.20;;;;;;;8.58;100.00;100521.94;5017037;28;20057;-82
2021/10/06 05:58:20;;;;;;;0.28;0.28;;;;;;;8.61;100.00;100533.06;5017587;28;20049;-83
2021/10/06 06:00:53;;;;;;;0.20;0.20;;;;;;;8.55;100.00;100528.72;5017536;28;20409;-82
2021/10/06 06:03:33;;;;;;;0.20;0.20;;;;;;;8.61;100.00;100530.34;5034515;28;20053;-82
2021/10/06 06:06:01;;;;;;;0.30;0.30;;;;;;;8.73;100.00;100550.97;5017077;28;20114;-83
2021/10/06 06:08:29;;;;;;;0.22;0.22;;;;;;;8.59;100.00;100535.25;5033448;28;20053;-82
2021/10/06 06:10:57;;;;;;;0.20;0.20;;;;;;;8.69;100.00;100553.41;5015631;28;20049;-82
2021/10/06 06:13:27;;;;;;;0.20;0.20;;;;;;;8.64;100.00;100556.13;5015951;28;20056;-81
2021/10/06 06:16:00;;;;;;;0.20;0.20;;;;;;;8.73;100.00;100559.09;5014793;28;20520;-82
2021/10/06 06:18:33;;;;;;;0.30;0.30;;;;;;;8.72;100.00;100571.06;5016965;28;20045;-82
2021/10/06 06:21:06;;;;;;;0.30;0.30;;;;;;;8.74;100.00;100571.59;5033735;28;20038;-81
2021/10/06 06:23:39;;;;;;;0.20;0.20;;;;;;;8.70;100.00;100562.34;5016042;28;20057;-82
2021/10/06 06:26:13;;;;;;;0.30;0.30;;;;;;;8.77;100.00;100577.31;5016578;28;20041;-81
2021/10/06 06:28:47;;;;;;;0.25;0.25;;;;;;;8.79;100.00;100577.84;5017157;28;20057;-81
2021/10/06 06:31:20;;;;;;;0.20;0.20;;;;;;;8.87;100.00;100578.41;5016838;28;20057;-82
2021/10/06 06:33:54;;;;;;;0.20;0.20;;;;;;;8.90;100.00;100591.41;5016276;28;20492;-82
2021/10/06 06:40:15;;;;;;;0.30;0.30;;;;;;;8.94;100.00;100600.66;5034882;28;20041;-82
2021/10/06 06:42:48;;;;;;;0.20;0.20;;;;;;;8.96;100.00;100595.75;5016107;28;20053;-82
2021/10/06 06:45:23;;;;;;;0.20;0.20;;;;;;;9.08;100.00;100598.22;5016228;28;20045;-82
2021/10/06 06:47:56;;;;;;;0.17;0.17;;;;;;;9.03;100.00;100604.44;5031255;28;20068;-84
2021/10/06 06:50:24;;;;;;;0.20;0.20;;;;;;;9.09;100.00;100608.00;5016463;28;20057;-83
2021/10/06 06:52:58;;;;;;;0.20;0.20;;;;;;;9.14;100.00;100603.38;5031268;28;20053;-83
2021/10/06 06:55:31;;;;;;;0.17;0.17;;;;;;;9.19;100.00;100603.34;5027729;28;20524;-82
2021/10/06 06:58:03;;;;;;;0.22;0.22;;;;;;;9.16;100.00;100594.94;5019333;28;20057;-84
2021/10/06 07:00:33;;;;;;;0.17;0.17;;;;;;;9.31;100.00;100613.13;5008284;28;20057;-83
2021/10/06 07:03:12;;;;;;;0.20;0.20;;;;;;;9.42;100.00;100622.06;5006317;28;20746;-84
2021/10/06 07:05:51;;;;;;;0.30;0.30;;;;;;;9.36;100.00;100602.25;5023188;28;21248;-81
2021/10/06 07:08:19;;;;;;;0.30;0.30;;;;;;;9.47;100.00;100622.06;5029669;28;20045;-85
2021/10/06 07:10:48;;;;;;;0.30;0.30;;;;;;;9.52;100.00;100620.16;5011577;28;20064;-86
2021/10/06 07:13:21;;;;;;;0.20;0.20;;;;;;;9.47;100.00;100606.59;5013580;28;20052;-86
2021/10/06 07:15:55;;;;;;;0.20;0.20;;;;;;;9.52;100.00;100616.63;5010117;28;20045;-87
2021/10/06 07:18:30;;;;;;;0.30;0.30;;;;;;;9.53;100.00;100621.78;5018816;28;20068;-85
2021/10/06 07:21:08;;;;;;;0.20;0.20;;;;;;;9.61;100.00;100620.44;5001170;28;20045;-84
2021/10/06 07:23:42;;;;;;;0.20;0.20;;;;;;;9.58;100.00;100631.81;5001528;28;20057;-86
2021/10/06 07:26:16;;;;;;;0.20;0.20;;;;;;;9.59;100.00;100629.94;5021639;28;20060;-87
2021/10/06 07:28:53;;;;;;;0.20;0.20;;;;;;;9.66;100.00;100639.41;5001910;28;20057;-83
2021/10/06 07:31:34;;;;;;;0.30;0.30;;;;;;;9.70;100.00;100650.56;4995793;28;20049;-91
2021/10/06 07:34:07;;;;;;;0.30;0.30;;;;;;;9.72;100.00;100642.94;4997363;28;20834;-86
2021/10/06 07:36:43;;;;;;;0.52;0.20;;;;;;;9.76;100.00;100654.88;5011535;28;20072;-88
2021/10/06 07:39:17;;;;;;;0.20;0.20;;;;;;;9.84;100.00;100653.53;5009596;28;20045;-85
2021/10/06 07:41:50;;;;;;;0.20;0.20;;;;;;;9.82;100.00;100653.81;4993776;28;20053;-88
2021/10/06 07:44:24;;;;;;;0.30;0.30;;;;;;;9.78;100.00;100654.63;4990084;28;20068;-85
2021/10/06 07:46:58;;;;;;;0.15;0.15;;;;;;;9.93;100.00;100659.19;5015999;28;20060;-83
2021/10/06 07:49:27;;;;;;;0.20;0.20;;;;;;;9.95;100.00;100665.19;4996136;28;20849;-87
2021/10/06 07:52:00;;;;;;;0.20;0.20;;;;;;;9.90;100.00;100659.75;5000085;28;20042;-86
2021/10/06 07:54:34;;;;;;;0.20;0.20;;;;;;;10.04;100.00;100663.53;4993516;28;20064;-84
2021/10/06 07:57:02;;;;;;;0.20;0.20;;;;;;;10.05;100.00;100665.16;5011738;28;20049;-84
2021/10/06 07:59:36;;;;;;;0.20;0.20;;;;;;;10.06;100.00;100671.44;5012836;28;20045;-86
2021/10/06 08:02:06;;;;;;;0.20;0.20;;;;;;;10.15;100.00;100675.19;5002319;28;20708;-82
2021/10/06 08:04:39;;;;;;;0.15;0.15;;;;;;;10.10;100.00;100681.47;4986627;28;20065;-86
2021/10/06 08:07:13;;;;;;;0.20;0.20;;;;;;;10.14;100.00;100677.09;4999892;28;20052;-85
2021/10/06 08:09:47;;;;;;;0.22;0.22;;;;;;;10.27;100.00;100691.19;4980256;28;20053;-83
2021/10/06 08:12:20;;;;;;;0.20;0.20;;;;;;;10.27;100.00;100693.91;4999098;28;20057;-86
2021/10/06 08:14:54;;;;;;;0.20;0.20;;;;;;;10.29;100.00;100694.44;5008553;28;20057;-84
2021/10/06 08:17:28;;;;;;;0.20;0.20;;;;;;;10.38;100.00;100692.81;5003617;28;20064;-83
2021/10/06 08:20:02;;;;;;;0.30;0.30;;;;;;;10.36;100.00;100674.06;5010298;28;20115;-84
2021/10/06 08:22:35;;;;;;;0.20;0.20;;;;;;;10.42;100.00;100693.88;5011222;28;20794;-83
2021/10/06 08:25:09;;;;;;;0.28;0.28;;;;;;;10.56;100.00;100688.66;5019197;28;20045;-84
2021/10/06 08:27:42;;;;;;;0.20;0.20;;;;;;;10.58;100.00;100691.09;5006900;28;20057;-85
2021/10/06 08:30:17;;;;;;;0.28;0.28;;;;;;;10.56;100.00;100688.66;5004948;28;20054;-84
2021/10/06 08:32:46;;;;;;;0.20;0.20;;;;;;;10.71;100.00;100694.00;4995686;28;20060;-82
2021/10/06 08:35:23;;;;;;;0.20;0.20;;;;;;;10.58;100.00;100682.94;5015201;28;21393;-84
2021/10/06 08:37:52;;;;;;;0.20;0.20;;;;;;;10.60;100.00;100697.09;5010528;28;20045;-84
2021/10/06 08:40:25;;;;;;;0.20;0.20;;;;;;;10.65;100.00;100707.94;5021503;28;20516;-85
2021/10/06 08:42:58;;;;;;;0.30;0.30;;;;;;;10.70;100.00;100707.91;5001038;28;20052;-81
2021/10/06 08:45:26;;;;;;;0.28;0.28;;;;;;;10.81;100.00;100714.94;5013568;28;20064;-83
2021/10/06 08:48:02;;;;;;;0.10;0.10;;;;;;;10.95;100.00;100722.47;4998739;28;20072;-83
2021/10/06 08:50:36;;;;;;;0.20;0.20;;;;;;;10.93;100.00;100717.31;5003187;28;20080;-84
2021/10/06 08:53:12;;;;;;;0.20;0.20;;;;;;;10.92;100.00;100712.16;5014524;28;20072;-86
2021/10/06 08:55:40;;;;;;;0.20;0.20;;;;;;;10.97;100.00;100720.31;4995664;28;20057;-84
2021/10/06 08:58:15;;;;;;;0.20;0.20;;;;;;;11.13;100.00;100734.63;5009569;28;20045;-85
2021/10/06 09:00:55;;;;;;;0.20;0.20;;;;;;;11.15;100.00;100725.09;5016450;28;20049;-84
2021/10/06 09:03:34;;;;;;;0.20;0.20;;;;;;;11.17;100.00;100730.25;5015039;28;20053;-84
2021/10/06 09:06:10;;;;;;;0.20;0.20;;;;;;;11.23;100.00;100734.56;5011315;28;21379;-84
2021/10/06 09:08:44;;;;;;;0.30;0.30;;;;;;;11.26;100.00;100744.91;5000083;28;20061;-86
2021/10/06 09:11:18;;;;;;;0.20;0.20;;;;;;;11.10;100.00;100740.66;5018510;28;20489;-84
2021/10/06 09:13:52;;;;;;;0.22;0.22;;;;;;;11.13;100.00;100751.81;5000475;28;20405;-85
2021/10/06 09:16:26;;;;;;;0.20;0.20;;;;;;;11.21;100.00;100750.38;4993496;28;20057;-85
2021/10/06 09:19:00;;;;;;;0.20;0.20;;;;;;;11.19;100.00;100752.56;4994771;28;20083;-86
2021/10/06 09:21:37;;;;;;;0.20;0.20;;;;;;;11.26;100.00;100746.81;5006615;28;20041;-86
2021/10/06 09:24:11;;;;;;;0.30;0.30;;;;;;;11.39;100.00;100757.06;4990814;28;20830;-87
2021/10/06 09:26:44;;;;;;;0.20;0.20;;;;;;;11.59;100.00;100758.84;5003731;28;20152;-85
2021/10/06 09:29:21;;;;;;;0.20;0.20;;;;;;;11.73;100.00;100748.09;5006292;28;20076;-83
2021/10/06 09:31:54;;;;;;;0.30;0.30;;;;;;;11.81;100.00;100763.84;5005669;28;20108;-84
2021/10/06 09:34:24;;;;;;;0.30;0.30;;;;;;;11.83;100.00;100760.81;5008312;28;20049;-86
2021/10/06 09:37:27;;;;;;;0.20;0.20;;;;;;;11.88;100.00;100760.78;4997672;28;20057;-85
2021/10/06 09:40:00;;;;;;;0.17;0.17;;;;;;;11.73;100.00;100761.72;4988644;28;20525;-85
2021/10/06 09:42:28;;;;;;;0.20;0.20;;;;;;;11.78;100.00;100766.31;4991661;28;20053;-85
2021/10/06 09:45:02;;;;;;;0.20;0.20;;;;;;;11.71;100.00;100764.72;5009309;28;20324;-85
2021/10/06 09:47:32;;;;;;;0.20;0.20;;;;;;;11.76;100.00;100779.44;5003849;28;21058;-84
2021/10/06 09:50:03;;;;;;;0.20;0.20;;;;;;;11.90;100.00;100774.94;5000632;28;20453;-85
2021/10/06 09:52:37;;;;;;;0.22;0.22;;;;;;;11.98;100.00;100784.44;5010862;28;20437;-83
2021/10/06 09:55:07;;;;;;;0.20;0.20;;;;;;;12.08;100.00;100776.97;5001025;28;20057;-84
2021/10/06 09:57:38;;;;;;;0.20;0.20;;;;;;;12.10;100.00;100776.69;5009112;28;20045;-84
2021/10/06 10:00:16;;;;;;;0.20;0.20;;;;;;;12.32;100.00;100794.47;5007199;28;20049;-85
2021/10/06 10:02:49;;;;;;;0.20;0.20;;;;;;;12.26;100.00;100780.06;5010713;28;20053;-84
2021/10/06 10:05:19;;;;;;;0.20;0.20;;;;;;;12.10;100.00;100786.78;5002614;28;20049;-85
2021/10/06 10:07:53;;;;;;;0.20;0.20;;;;;;;11.97;100.00;100780.88;4986812;28;20417;-85
2021/10/06 10:10:26;;;;;;;0.20;0.20;;;;;;;11.86;100.00;100782.06;4984831;28;20065;-84
2021/10/06 10:13:00;;;;;;;0.22;0.22;;;;;;;11.90;100.00;100783.94;4984052;28;20065;-86
2021/10/06 10:15:34;;;;;;;0.20;0.20;;;;;;;12.05;100.00;100793.91;4979350;28;20053;-84
2021/10/06 10:18:10;;;;;;;0.30;0.30;;;;;;;12.21;100.00;100796.50;5003886;28;21179;-85
2021/10/06 10:20:47;;;;;;;0.20;0.20;;;;;;;12.21;100.00;100799.25;5000185;28;20049;-84
2021/10/06 10:23:25;;;;;;;0.25;0.25;;;;;;;12.27;99.92;100806.25;4983382;28;20057;-86
2021/10/06 10:25:59;;;;;;;0.30;0.30;;;;;;;12.21;100.00;100800.03;4983627;28;20064;-84
2021/10/06 10:28:40;;;;;;;0.20;0.20;;;;;;;12.24;99.97;100804.91;4999408;28;20049;-84
2021/10/06 10:31:15;;;;;;;0.20;0.20;;;;;;;12.19;98.52;100815.06;4998694;28;20049;-84
2021/10/06 10:33:51;;;;;;;0.30;0.30;;;;;;;12.13;97.87;100814.31;4995067;28;20053;-85
2021/10/06 10:36:48;;;;;;;0.20;0.20;;;;;;;12.05;100.00;100823.91;5005387;28;20076;-85
2021/10/06 10:39:49;;;;;;;0.30;0.30;;;;;;;12.22;96.49;100819.94;5003998;28;20129;-85
2021/10/06 10:42:56;;;;;;;0.30;0.30;;;;;;;12.29;99.69;100822.34;4968171;28;20602;-86
2021/10/06 10:45:38;;;;;;;0.20;0.20;;;;;;;12.36;98.66;100828.25;5006108;28;20049;-85
2021/10/06 10:48:13;;;;;;;0.20;0.20;;;;;;;12.34;96.96;100816.84;4985952;28;20072;-86
2021/10/06 10:51:09;;;;;;;0.20;0.20;;;;;;;12.35;97.72;100829.38;5001306;28;20501;-84
2021/10/06 10:54:02;;;;;;;0.20;0.20;;;;;;;12.62;99.48;100828.81;4992720;28;20160;-84
2021/10/06 10:56:54;;;;;;;0.20;0.20;;;;;;;12.80;96.16;100823.72;4994054;28;20480;-86
2021/10/06 10:59:27;;;;;;;0.20;0.20;;;;;;;12.94;97.16;100813.72;4998826;28;20053;-87
2021/10/06 11:02:00;;;;;;;0.20;0.20;;;;;;;12.95;96.18;100814.53;4997322;28;20053;-87
2021/10/06 11:04:39;;;;;;;0.20;0.20;;;;;;;13.07;91.59;100821.19;5014255;28;20048;-88
2021/10/06 11:07:14;;;;;;;0.20;0.20;;;;;;;12.91;92.50;100836.13;5005969;28;20061;-85
2021/10/06 11:09:51;;;;;;;0.20;0.20;;;;;;;12.78;93.11;100840.41;4982682;28;20299;-86
2021/10/06 11:12:32;;;;;;;0.20;0.20;;;;;;;12.67;92.54;100841.63;5010798;28;20053;-84
2021/10/06 11:15:25;;;;;;;0.30;0.30;;;;;;;12.54;95.66;100849.38;4992857;28;20061;-82
2021/10/06 11:18:19;;;;;;;0.25;0.25;;;;;;;12.66;95.80;100850.91;4999471;28;20069;-84
2021/10/06 11:21:05;;;;;;;0.20;0.20;;;;;;;12.57;93.44;100864.38;5010249;28;20052;-84
2021/10/06 11:23:44;;;;;;;0.20;0.20;;;;;;;12.50;92.42;100867.44;5006168;28;20045;-86
2021/10/06 11:26:18;;;;;;;0.20;0.20;;;;;;;12.55;92.33;100863.84;5004317;28;20103;-86
2021/10/06 11:28:55;;;;;;;0.20;0.20;;;;;;;12.53;94.29;100866.06;4997705;28;20057;-84
2021/10/06 11:31:25;;;;;;;0.20;0.20;;;;;;;12.62;96.22;100877.16;4998239;28;20512;-88
2021/10/06 11:33:53;;;;;;;0.88;0.20;;;;;;;12.62;97.42;100875.22;5005651;28;20045;-88
2021/10/06 11:36:28;;;;;;;0.20;0.20;;;;;;;12.65;98.10;100871.94;5003305;28;20505;-85
2021/10/06 11:38:59;;;;;;;0.20;0.20;;;;;;;12.51;95.30;100877.28;4999194;28;20053;-85
2021/10/06 11:41:34;;;;;;;0.20;0.20;;;;;;;12.39;97.03;100879.56;4997868;28;20378;-87
2021/10/06 11:44:08;;;;;;;0.22;0.22;;;;;;;12.45;97.66;100885.78;4997474;28;20389;-87
2021/10/06 11:46:42;;;;;;;0.20;0.20;;;;;;;12.51;96.72;100885.47;5001946;28;20053;-89
2021/10/06 11:49:11;;;;;;;0.20;0.20;;;;;;;12.46;100.00;100890.97;5014189;28;20056;-86
2021/10/06 11:51:42;;;;;;;0.13;0.13;;;;;;;12.51;95.34;100881.91;4981836;28;20650;-84
2021/10/06 11:54:17;;;;;;;0.20;0.20;;;;;;;12.64;100.00;100892.16;4987434;28;20052;-83
2021/10/06 11:56:50;;;;;;;0.20;0.20;;;;;;;12.70;99.21;100896.44;4975388;28;20508;-85
2021/10/06 11:59:26;;;;;;;0.20;0.20;;;;;;;12.80;99.57;100897.44;4996438;28;20409;-85